createdAt,value
2018-03-08T00:00:05.681Z,8
2018-03-08T00:15:08.477Z,8.3
2018-03-08T00:30:04.840Z,8.1
2018-03-08T00:45:05.988Z,8.1
2018-03-08T01:00:04.985Z,7.9
2018-03-08T01:15:05.368Z,7.9
2018-03-08T01:30:05.460Z,7.9
2018-03-08T01:45:04.996Z,7.7
2018-03-08T02:00:04.486Z,7.7
2018-03-08T02:15:05.184Z,7.6
2018-03-08T02:30:04.769Z,7.6
2018-03-08T02:45:04.706Z,7.6
2018-03-08T03:00:05.829Z,7.5
2018-03-08T03:15:05.222Z,7.6
2018-03-08T03:30:05.041Z,7.7
2018-03-08T03:45:05.156Z,7.5
2018-03-08T04:00:04.632Z,7.7
2018-03-08T04:15:04.708Z,7.8
2018-03-08T04:30:04.460Z,7.9
2018-03-08T04:45:04.879Z,7.9
2018-03-08T05:00:05.072Z,-7.9
2018-03-08T05:15:05.098Z,7.7
2018-03-08T05:30:04.487Z,7.7
2018-03-08T05:45:05.096Z,7.6
2018-03-08T06:00:05.352Z,7.5
2018-03-08T06:15:04.837Z,7.5
2018-03-08T06:30:05.277Z,7.1
2018-03-08T06:45:04.764Z,7.2
2018-03-08T07:00:04.250Z,7.1
2018-03-08T07:15:04.688Z,7.2
2018-03-08T07:30:04.294Z,7.4
2018-03-08T07:45:04.859Z,8.9
2018-03-08T08:00:04.890Z,10.6
2018-03-08T08:15:04.443Z,12.3
2018-03-08T08:30:04.762Z,13.9
2018-03-08T08:45:04.690Z,15.4
2018-03-08T09:00:05.069Z,15.4
2018-03-08T09:15:04.647Z,17.1
2018-03-08T09:30:04.260Z,20.2
2018-03-08T09:45:04.302Z,25.7
2018-03-08T10:00:05.262Z,26.6
2018-03-08T10:15:05.283Z,19.8
2018-03-08T10:30:04.972Z,15.8
2018-03-08T10:45:04.910Z,14.5
2018-03-08T11:00:04.919Z,13.8
2018-03-08T11:15:04.913Z,13.8
2018-03-08T11:30:05.160Z,13.5
2018-03-08T11:45:04.552Z,13.5
2018-03-08T12:00:04.995Z,13.5
2018-03-08T12:15:04.393Z,12.9
2018-03-08T12:30:04.585Z,13.1
2018-03-08T12:45:04.620Z,12.8
2018-03-08T13:00:04.625Z,12.9
2018-03-08T13:15:04.627Z,13
2018-03-08T13:30:04.725Z,13.1
2018-03-08T13:45:05.189Z,13.5
2018-03-08T14:00:04.608Z,13.4
2018-03-08T14:15:05.136Z,13.7
2018-03-08T14:30:04.276Z,13.7
2018-03-08T14:45:04.262Z,13.8
2018-03-08T15:00:05.217Z,13.8
2018-03-08T15:15:04.624Z,14.1
2018-03-08T15:30:04.753Z,14.2
2018-03-08T15:45:04.678Z,14.1
2018-03-08T16:00:04.617Z,14.1
2018-03-08T16:15:04.569Z,13.9
2018-03-08T16:30:04.791Z,13.9
2018-03-08T16:45:04.284Z,13.9
2018-03-08T17:00:04.703Z,13.8
2018-03-08T17:15:05.219Z,13.3
2018-03-08T17:30:04.669Z,13
2018-03-08T17:45:05.072Z,12.6
2018-03-08T18:00:04.493Z,12.4
2018-03-08T18:15:04.903Z,12.2
2018-03-08T18:30:04.533Z,11.8
2018-03-08T18:45:04.554Z,11.7
2018-03-08T19:00:05.141Z,11.3
2018-03-08T19:15:05.019Z,11.1
2018-03-08T19:30:05.226Z,10.7
2018-03-08T19:45:04.682Z,10.4
2018-03-08T20:00:05.206Z,10.2
2018-03-08T20:15:05.176Z,10.1
2018-03-08T20:30:05.024Z,10
2018-03-08T20:45:04.772Z,10
2018-03-08T21:00:04.843Z,10.1
2018-03-08T21:15:04.336Z,10.1
2018-03-08T21:30:05.128Z,10
2018-03-08T21:45:04.861Z,10.1
2018-03-08T22:00:04.418Z,10
2018-03-08T22:15:04.719Z,10.1
2018-03-08T22:30:04.530Z,10.2
2018-03-08T22:45:05.903Z,10.6
2018-03-08T23:00:04.330Z,11.1
2018-03-08T23:15:04.816Z,11.4
2018-03-08T23:30:04.602Z,11.4
2018-03-08T23:45:05.303Z,11.6
